createdAt,value
2022-12-02T00:00:58.279Z,54.25
2022-12-02T00:03:25.854Z,54.70
2022-12-02T00:05:55.535Z,54.85
2022-12-02T00:08:28.261Z,54.86
2022-12-02T00:10:57.493Z,54.95
2022-12-02T00:13:27.869Z,54.68
2022-12-02T00:15:59.110Z,54.69
2022-12-02T00:18:27.494Z,55.44
2022-12-02T00:20:55.797Z,55.00
2022-12-02T00:23:23.790Z,55.20
2022-12-02T00:25:53.369Z,54.98
2022-12-02T00:28:20.857Z,55.03
2022-12-02T00:30:47.873Z,55.51
2022-12-02T00:33:18.086Z,55.52
2022-12-02T00:35:45.541Z,54.87
2022-12-02T00:38:12.728Z,54.92
2022-12-02T00:40:39.759Z,55.35
2022-12-02T00:43:25.695Z,55.07
2022-12-02T00:46:11.889Z,55.24
2022-12-02T00:48:40.441Z,55.40
2022-12-02T00:51:07.537Z,55.04
2022-12-02T00:53:34.803Z,55.06
2022-12-02T00:56:01.799Z,55.18
2022-12-02T00:58:28.772Z,54.97
2022-12-02T01:00:55.850Z,55.16
2022-12-02T01:03:22.866Z,55.99
2022-12-02T01:05:51.197Z,55.95
2022-12-02T01:08:18.193Z,55.65
2022-12-02T01:10:45.237Z,55.79
2022-12-02T01:13:12.215Z,55.85
2022-12-02T01:15:39.212Z,55.75
2022-12-02T01:18:06.550Z,55.99
2022-12-02T01:20:33.928Z,56.43
2022-12-02T01:23:02.288Z,56.13
2022-12-02T01:25:29.271Z,56.14
2022-12-02T01:27:57.108Z,56.05
2022-12-02T01:30:24.153Z,56.25
2022-12-02T01:32:51.160Z,56.48
2022-12-02T01:35:18.587Z,56.23
2022-12-02T01:37:45.591Z,56.26
2022-12-02T01:40:16.068Z,56.40
2022-12-02T01:42:45.436Z,56.28
2022-12-02T01:45:13.759Z,56.43
2022-12-02T01:47:41.799Z,56.17
2022-12-02T01:50:12.104Z,56.47
2022-12-02T01:52:39.658Z,56.07
2022-12-02T01:55:12.041Z,56.08
2022-12-02T01:57:40.746Z,56.57
2022-12-02T02:00:09.903Z,56.03
2022-12-02T02:02:39.403Z,55.01
2022-12-02T02:05:11.364Z,55.61
2022-12-02T02:07:41.121Z,55.70
2022-12-02T02:10:10.047Z,55.89
2022-12-02T02:12:37.369Z,55.50
2022-12-02T02:15:09.604Z,55.50
2022-12-02T02:17:36.850Z,55.42
2022-12-02T02:20:09.438Z,55.63
2022-12-02T02:22:45.439Z,55.62
2022-12-02T02:25:20.507Z,55.49
2022-12-02T02:27:54.089Z,55.05
2022-12-02T02:30:21.731Z,55.55
2022-12-02T02:32:50.037Z,55.67
2022-12-02T02:35:19.483Z,55.71
2022-12-02T02:37:49.183Z,55.65
2022-12-02T02:40:18.909Z,55.82
2022-12-02T02:42:50.001Z,55.70
2022-12-02T02:45:17.973Z,55.56
2022-12-02T02:47:45.928Z,55.41
2022-12-02T02:50:13.317Z,55.69
2022-12-02T02:52:40.856Z,55.41
2022-12-02T02:55:12.312Z,55.25
2022-12-02T02:57:40.764Z,55.38
2022-12-02T03:00:09.989Z,55.15
2022-12-02T03:02:37.582Z,55.27
2022-12-02T03:05:06.276Z,55.52
2022-12-02T03:07:34.918Z,55.53
2022-12-02T03:10:02.926Z,55.20
2022-12-02T03:12:30.117Z,55.18
2022-12-02T03:15:00.229Z,55.35
2022-12-02T03:17:27.419Z,55.89
2022-12-02T03:19:54.830Z,55.74
2022-12-02T03:22:22.226Z,55.83
2022-12-02T03:24:49.593Z,56.03
2022-12-02T03:27:16.752Z,56.26
2022-12-02T03:29:44.215Z,56.28
2022-12-02T03:32:13.107Z,56.25
2022-12-02T03:34:42.281Z,56.14
2022-12-02T03:37:10.168Z,56.19
2022-12-02T03:39:37.889Z,56.56
2022-12-02T03:42:05.550Z,56.28
2022-12-02T03:44:32.766Z,55.88
2022-12-02T03:47:01.653Z,55.90
2022-12-02T03:49:32.753Z,56.12
2022-12-02T03:52:00.242Z,56.55
2022-12-02T03:54:27.549Z,55.99
2022-12-02T03:56:54.543Z,56.04
2022-12-02T03:59:26.355Z,56.16
2022-12-02T04:01:53.903Z,56.09
2022-12-02T04:04:20.903Z,56.36
2022-12-02T04:06:49.187Z,56.66
2022-12-02T04:09:16.367Z,56.26
2022-12-02T04:11:43.411Z,56.96
2022-12-02T04:14:10.399Z,56.51
2022-12-02T04:16:37.365Z,56.66
2022-12-02T04:19:04.296Z,56.82
2022-12-02T04:21:31.231Z,56.48
2022-12-02T04:23:59.530Z,56.49
2022-12-02T04:26:26.542Z,56.61
2022-12-02T04:28:53.509Z,56.56
2022-12-02T04:31:20.532Z,56.25
2022-12-02T04:33:47.551Z,56.26
2022-12-02T04:36:14.591Z,56.80
2022-12-02T04:38:41.533Z,57.17
2022-12-02T04:41:09.848Z,57.35
2022-12-02T04:43:36.795Z,57.33
2022-12-02T04:46:03.796Z,56.97
2022-12-02T04:48:30.810Z,56.68
2022-12-02T04:50:57.728Z,56.94
2022-12-02T04:53:25.000Z,56.93
2022-12-02T04:55:51.971Z,56.83
2022-12-02T04:58:20.275Z,56.53
2022-12-02T05:00:47.307Z,55.69
2022-12-02T05:03:14.313Z,56.27
2022-12-02T05:05:41.325Z,55.49
2022-12-02T05:08:08.368Z,55.75
2022-12-02T05:10:35.390Z,55.68
2022-12-02T05:13:02.394Z,54.98
2022-12-02T05:15:30.756Z,54.91
2022-12-02T05:17:57.707Z,55.02
2022-12-02T05:20:24.651Z,55.59
2022-12-02T05:22:51.907Z,55.04
2022-12-02T05:25:18.849Z,55.11
2022-12-02T05:27:45.799Z,54.36
2022-12-02T05:30:14.173Z,54.26
2022-12-02T05:32:42.449Z,54.37
2022-12-02T05:35:09.666Z,54.34
2022-12-02T05:37:36.615Z,54.57
2022-12-02T05:40:05.103Z,54.51
2022-12-02T05:42:34.305Z,54.32
2022-12-02T05:45:13.094Z,54.90
2022-12-02T05:47:40.119Z,54.66
2022-12-02T05:50:13.879Z,55.48
2022-12-02T05:52:43.628Z,55.62
2022-12-02T05:55:15.372Z,55.22
2022-12-02T05:57:42.835Z,55.04
2022-12-02T06:00:17.556Z,55.02
2022-12-02T06:02:48.518Z,54.61
2022-12-02T06:05:25.396Z,54.57
2022-12-02T06:07:56.965Z,54.28
2022-12-02T06:10:28.326Z,54.62
2022-12-02T06:13:01.581Z,54.94
2022-12-02T06:15:36.565Z,54.59
2022-12-02T06:18:12.595Z,54.22
2022-12-02T06:20:41.686Z,54.68
2022-12-02T06:23:14.462Z,54.08
2022-12-02T06:25:42.822Z,54.46
2022-12-02T06:28:25.551Z,54.42
2022-12-02T06:30:58.487Z,54.84
2022-12-02T06:33:31.271Z,54.54
2022-12-02T06:36:04.231Z,54.15
2022-12-02T06:38:42.356Z,53.94
2022-12-02T06:41:17.067Z,53.79
2022-12-02T06:44:03.984Z,53.96
2022-12-02T06:46:35.841Z,53.79
2022-12-02T06:49:16.330Z,53.81
2022-12-02T06:51:44.694Z,54.09
2022-12-02T06:54:20.563Z,54.02
2022-12-02T06:56:49.203Z,54.13
2022-12-02T06:59:21.714Z,53.74
2022-12-02T07:01:52.575Z,53.64
2022-12-02T07:04:35.416Z,54.04
2022-12-02T07:07:18.032Z,53.81
2022-12-02T07:09:49.048Z,53.85
2022-12-02T07:12:20.901Z,53.90
2022-12-02T07:14:51.568Z,53.92
2022-12-02T07:17:26.556Z,53.80
2022-12-02T07:20:02.915Z,54.25
2022-12-02T07:22:35.940Z,54.08
2022-12-02T07:25:34.240Z,54.04
2022-12-02T07:28:15.032Z,54.41
2022-12-02T07:30:42.876Z,54.02
2022-12-02T07:33:09.877Z,53.84
2022-12-02T07:35:36.819Z,54.08
2022-12-02T07:38:05.086Z,54.07
2022-12-02T07:40:32.023Z,53.88
2022-12-02T07:42:58.971Z,53.86
2022-12-02T07:45:26.071Z,54.55
2022-12-02T07:47:53.092Z,54.32
2022-12-02T07:50:20.159Z,54.28
2022-12-02T07:52:47.124Z,54.50
2022-12-02T07:55:21.462Z,54.26
2022-12-02T07:57:53.535Z,54.29
2022-12-02T08:00:22.763Z,54.26
2022-12-02T08:02:49.796Z,54.05
2022-12-02T08:05:17.011Z,54.21
2022-12-02T08:07:44.104Z,54.43
2022-12-02T08:10:12.078Z,54.48
2022-12-02T08:12:40.479Z,54.15
2022-12-02T08:15:09.844Z,53.80
2022-12-02T08:17:37.505Z,53.84
2022-12-02T08:20:07.391Z,53.89
2022-12-02T08:22:34.330Z,54.34
2022-12-02T08:25:01.429Z,54.28
2022-12-02T08:27:28.443Z,54.09
2022-12-02T08:29:56.741Z,53.94
2022-12-02T08:32:23.920Z,54.03
2022-12-02T08:34:51.208Z,54.53
2022-12-02T08:37:18.334Z,54.36
2022-12-02T08:39:45.310Z,54.44
2022-12-02T08:42:12.823Z,54.65
2022-12-02T08:44:39.758Z,55.24
2022-12-02T08:47:08.064Z,54.95
2022-12-02T08:49:35.056Z,55.07
2022-12-02T08:52:02.745Z,55.18
2022-12-02T08:54:29.822Z,54.64
2022-12-02T08:56:56.958Z,54.50
2022-12-02T08:59:29.869Z,54.75
2022-12-02T09:01:56.862Z,55.10
2022-12-02T09:04:25.493Z,55.49
2022-12-02T09:06:52.492Z,54.81
2022-12-02T09:09:19.545Z,54.80
2022-12-02T09:11:46.717Z,54.58
2022-12-02T09:14:13.713Z,55.06
2022-12-02T09:16:40.825Z,54.78
2022-12-02T09:19:08.808Z,54.35
2022-12-02T09:21:37.055Z,54.59
2022-12-02T09:24:04.875Z,54.30
2022-12-02T09:26:32.216Z,54.19
2022-12-02T09:28:59.526Z,54.62
2022-12-02T09:31:27.051Z,54.84
2022-12-02T09:33:54.520Z,54.60
2022-12-02T09:36:21.793Z,54.44
2022-12-02T09:38:51.902Z,54.97
2022-12-02T09:41:22.074Z,55.02
2022-12-02T09:43:50.750Z,54.78
2022-12-02T09:46:24.571Z,54.49
2022-12-02T09:48:52.528Z,54.28
2022-12-02T09:51:24.756Z,54.38
2022-12-02T09:53:54.215Z,54.20
2022-12-02T09:56:22.782Z,54.52
2022-12-02T09:58:53.376Z,54.05
2022-12-02T10:01:20.621Z,54.18
2022-12-02T10:03:51.089Z,54.11
2022-12-02T10:06:26.931Z,54.21
2022-12-02T10:08:58.106Z,54.03
2022-12-02T10:11:28.584Z,54.16
2022-12-02T10:13:59.175Z,53.58
2022-12-02T10:16:28.030Z,53.69
2022-12-02T10:19:02.951Z,53.47
2022-12-02T10:21:30.582Z,53.98
2022-12-02T10:24:01.901Z,53.80
2022-12-02T10:26:50.082Z,53.67
2022-12-02T10:29:25.970Z,53.68
2022-12-02T10:31:57.632Z,53.45
2022-12-02T10:34:26.237Z,53.24
2022-12-02T10:36:54.734Z,53.67
2022-12-02T10:39:37.806Z,53.15
2022-12-02T10:42:21.591Z,52.61
2022-12-02T10:45:15.644Z,52.80
2022-12-02T10:47:42.816Z,53.24
2022-12-02T10:50:20.531Z,52.73
2022-12-02T10:52:55.522Z,52.47
2022-12-02T10:55:26.692Z,52.28
2022-12-02T10:57:55.861Z,52.74
2022-12-02T11:00:28.394Z,52.23
2022-12-02T11:02:58.645Z,52.24
2022-12-02T11:05:31.270Z,52.52
2022-12-02T11:08:09.240Z,52.81
2022-12-02T11:10:41.088Z,52.16
2022-12-02T11:13:32.482Z,52.48
2022-12-02T11:17:02.608Z,52.86
2022-12-02T11:19:46.834Z,52.27
2022-12-02T11:23:06.237Z,52.37
2022-12-02T11:25:57.265Z,52.14
2022-12-02T11:28:47.498Z,52.23
2022-12-02T11:31:23.889Z,52.31
2022-12-02T11:34:06.101Z,52.45
2022-12-02T11:36:36.265Z,52.58
2022-12-02T11:39:10.055Z,52.29
2022-12-02T11:42:23.535Z,52.62
2022-12-02T11:44:51.856Z,52.19
2022-12-02T11:47:30.562Z,52.66
2022-12-02T11:50:22.067Z,52.23
2022-12-02T11:52:56.569Z,52.07
2022-12-02T11:55:33.176Z,52.00
2022-12-02T11:58:04.380Z,52.63
2022-12-02T12:01:21.708Z,52.56
2022-12-02T12:03:52.698Z,52.62
2022-12-02T12:06:25.355Z,52.50
2022-12-02T12:08:56.744Z,52.61
2022-12-02T12:11:27.043Z,52.61
2022-12-02T12:14:02.648Z,52.75
2022-12-02T12:16:35.028Z,52.59
2022-12-02T12:19:04.843Z,52.59
2022-12-02T12:21:47.782Z,52.79
2022-12-02T12:24:34.882Z,52.47
2022-12-02T12:27:32.740Z,52.59
2022-12-02T12:30:01.919Z,52.58
2022-12-02T12:32:29.375Z,52.76
2022-12-02T12:34:57.260Z,52.90
2022-12-02T12:37:29.577Z,52.56
2022-12-02T12:39:56.859Z,52.30
2022-12-02T12:42:24.431Z,51.76
2022-12-02T12:44:54.783Z,51.98
2022-12-02T12:47:23.675Z,51.69
2022-12-02T12:49:51.075Z,51.93
2022-12-02T12:52:18.419Z,51.89
2022-12-02T12:54:50.795Z,51.85
2022-12-02T12:57:20.086Z,51.95
2022-12-02T12:59:47.158Z,52.15
2022-12-02T13:02:16.871Z,51.86
2022-12-02T13:04:45.234Z,51.77
2022-12-02T13:07:14.854Z,51.76
2022-12-02T13:09:41.925Z,51.67
2022-12-02T13:12:12.904Z,51.88
2022-12-02T13:14:41.233Z,52.27
2022-12-02T13:17:08.479Z,52.28
2022-12-02T13:19:35.552Z,51.84
2022-12-02T13:22:03.918Z,52.16
2022-12-02T13:24:33.239Z,52.04
2022-12-02T13:27:01.551Z,52.27
2022-12-02T13:29:28.571Z,52.47
2022-12-02T13:31:55.575Z,52.03
2022-12-02T13:34:22.569Z,52.35
2022-12-02T13:36:49.502Z,52.01
2022-12-02T13:39:17.871Z,51.96
2022-12-02T13:41:44.812Z,51.78
2022-12-02T13:44:11.751Z,52.18
2022-12-02T13:46:38.749Z,52.13
2022-12-02T13:49:05.717Z,52.43
2022-12-02T13:51:32.738Z,51.95
2022-12-02T13:53:59.840Z,51.98
2022-12-02T13:56:28.726Z,51.75
2022-12-02T13:58:56.538Z,51.54
2022-12-02T14:01:23.693Z,51.73
2022-12-02T14:03:51.253Z,51.35
2022-12-02T14:06:21.240Z,51.62
2022-12-02T14:08:48.298Z,51.43
2022-12-02T14:11:15.412Z,51.04
2022-12-02T14:13:43.656Z,51.02
2022-12-02T14:16:10.708Z,50.90
2022-12-02T14:18:37.926Z,51.09
2022-12-02T14:21:05.296Z,51.57
2022-12-02T14:23:32.307Z,51.61
2022-12-02T14:25:59.355Z,51.75
2022-12-02T14:28:26.429Z,51.78
2022-12-02T14:30:54.907Z,51.42
2022-12-02T14:33:25.275Z,51.50
2022-12-02T14:35:55.403Z,50.77
2022-12-02T14:38:22.574Z,50.33
2022-12-02T14:40:49.585Z,50.74
2022-12-02T14:43:16.577Z,50.85
2022-12-02T14:45:43.591Z,51.23
2022-12-02T14:48:11.997Z,51.61
2022-12-02T14:50:39.092Z,51.38
2022-12-02T14:53:06.297Z,51.18
2022-12-02T14:55:33.272Z,51.18
2022-12-02T14:58:00.192Z,50.10
2022-12-02T15:00:27.165Z,49.48
2022-12-02T15:02:54.232Z,49.10
2022-12-02T15:05:23.075Z,49.44
2022-12-02T15:07:50.159Z,48.62
2022-12-02T15:10:17.742Z,49.06
2022-12-02T15:12:44.734Z,48.41
2022-12-02T15:17:59.037Z,48.21
2022-12-02T15:20:27.312Z,48.08
2022-12-02T15:22:54.507Z,48.43
2022-12-02T15:25:21.567Z,48.39
2022-12-02T15:27:48.565Z,48.57
2022-12-02T15:30:16.042Z,48.54
2022-12-02T15:32:44.796Z,48.41
2022-12-02T15:35:12.250Z,48.88
2022-12-02T15:37:40.894Z,49.13
2022-12-02T15:40:10.923Z,48.59
2022-12-02T15:42:38.007Z,48.61
2022-12-02T15:45:06.137Z,48.78
2022-12-02T15:47:33.114Z,48.69
2022-12-02T15:50:00.467Z,48.92
2022-12-02T15:52:27.487Z,49.53
2022-12-02T15:54:55.856Z,49.14
2022-12-02T15:57:23.711Z,48.97
2022-12-02T15:59:50.731Z,49.00
2022-12-02T16:02:17.737Z,49.08
2022-12-02T16:04:44.698Z,48.69
2022-12-02T16:07:11.689Z,49.06
2022-12-02T16:09:38.738Z,48.66
2022-12-02T16:12:08.175Z,48.63
2022-12-02T16:14:35.270Z,48.57
2022-12-02T16:17:02.327Z,48.81
2022-12-02T16:19:29.273Z,48.61
2022-12-02T16:21:56.348Z,48.99
2022-12-02T16:24:23.292Z,48.49
2022-12-02T16:26:55.192Z,48.50
2022-12-02T16:29:24.404Z,48.30
2022-12-02T16:31:51.485Z,48.52
2022-12-02T16:34:18.451Z,48.73
2022-12-02T16:36:45.423Z,48.95
2022-12-02T16:39:12.440Z,49.30
2022-12-02T16:41:39.469Z,48.55
2022-12-02T16:44:06.470Z,48.82
2022-12-02T16:46:36.699Z,48.69
2022-12-02T16:49:05.201Z,48.91
2022-12-02T16:51:32.286Z,49.07
2022-12-02T16:53:59.255Z,49.28
2022-12-02T16:56:26.210Z,49.33
2022-12-02T16:58:53.129Z,49.33
2022-12-02T17:01:20.106Z,49.13
2022-12-02T17:03:48.463Z,48.59
2022-12-02T17:06:15.474Z,48.73
2022-12-02T17:08:42.432Z,48.85
2022-12-02T17:11:09.510Z,48.69
2022-12-02T17:13:36.818Z,48.88
2022-12-02T17:16:04.166Z,48.92
2022-12-02T17:18:31.180Z,49.13
2022-12-02T17:20:59.552Z,49.29
2022-12-02T17:23:26.510Z,49.15
2022-12-02T17:25:53.526Z,49.22
2022-12-02T17:28:22.222Z,49.17
2022-12-02T17:30:49.324Z,49.44
2022-12-02T17:33:17.951Z,49.15
2022-12-02T17:35:44.932Z,49.00
2022-12-02T17:38:13.466Z,49.47
2022-12-02T17:40:40.391Z,49.53
2022-12-02T17:43:07.380Z,49.50
2022-12-02T17:45:34.447Z,49.44
2022-12-02T17:48:01.424Z,49.53
2022-12-02T17:50:28.344Z,49.38
2022-12-02T17:52:55.359Z,49.57
2022-12-02T17:55:24.192Z,49.48
2022-12-02T17:57:51.329Z,49.65
2022-12-02T18:00:19.277Z,48.95
2022-12-02T18:02:46.293Z,48.98
2022-12-02T18:05:13.292Z,49.33
2022-12-02T18:07:40.253Z,49.43
2022-12-02T18:10:08.063Z,49.41
2022-12-02T18:12:36.445Z,49.55
2022-12-02T18:15:04.401Z,49.59
2022-12-02T18:17:31.386Z,49.56
2022-12-02T18:19:58.338Z,49.16
2022-12-02T18:22:25.307Z,49.39
2022-12-02T18:24:52.613Z,49.63
2022-12-02T18:27:19.814Z,49.51
2022-12-02T18:29:48.205Z,49.76
2022-12-02T18:32:15.185Z,49.50
2022-12-02T18:34:42.192Z,49.65
2022-12-02T18:37:12.211Z,49.78
2022-12-02T18:39:39.553Z,49.46
2022-12-02T18:42:07.035Z,49.60
2022-12-02T18:44:34.060Z,50.04
2022-12-02T18:47:05.128Z,49.86
2022-12-02T18:49:32.095Z,50.27
2022-12-02T18:51:59.149Z,49.95
2022-12-02T18:54:26.169Z,49.99
2022-12-02T18:56:53.114Z,49.90
2022-12-02T18:59:20.126Z,50.10
2022-12-02T19:01:47.308Z,50.29
2022-12-02T19:04:15.682Z,50.29
2022-12-02T19:06:42.777Z,50.01
2022-12-02T19:09:09.805Z,50.44
2022-12-02T19:11:36.782Z,50.53
2022-12-02T19:14:03.777Z,50.42
2022-12-02T19:16:30.847Z,50.48
2022-12-02T19:18:58.057Z,50.39
2022-12-02T19:21:26.567Z,50.55
2022-12-02T19:23:53.649Z,50.01
2022-12-02T19:26:21.784Z,50.11
2022-12-02T19:28:48.768Z,50.28
2022-12-02T19:31:15.869Z,50.24
2022-12-02T19:33:42.900Z,50.47
2022-12-02T19:36:10.074Z,50.68
2022-12-02T19:38:38.380Z,50.51
2022-12-02T19:41:05.656Z,50.10
2022-12-02T19:43:35.944Z,50.21
2022-12-02T19:46:03.521Z,50.62
2022-12-02T19:48:30.696Z,50.03
2022-12-02T19:50:57.689Z,50.18
2022-12-02T19:53:24.704Z,49.49
2022-12-02T19:55:53.027Z,50.18
2022-12-02T19:58:20.096Z,49.57
2022-12-02T20:00:47.073Z,49.41
2022-12-02T20:03:14.084Z,49.73
2022-12-02T20:05:41.023Z,49.39
2022-12-02T20:08:08.237Z,49.78
2022-12-02T20:10:35.383Z,49.77
2022-12-02T20:13:03.900Z,49.74
2022-12-02T20:15:31.095Z,49.79
2022-12-02T20:17:58.075Z,49.61
2022-12-02T20:20:25.066Z,50.00
2022-12-02T20:22:52.611Z,49.83
2022-12-02T20:25:19.560Z,49.95
2022-12-02T20:27:52.754Z,50.13
2022-12-02T20:30:23.394Z,50.24
2022-12-02T20:32:50.468Z,49.93
2022-12-02T20:35:17.683Z,50.41
2022-12-02T20:37:44.731Z,50.05
2022-12-02T20:40:14.320Z,49.82
2022-12-02T20:42:41.858Z,49.78
2022-12-02T20:45:11.458Z,50.39
2022-12-02T20:47:39.824Z,50.29
2022-12-02T20:50:08.830Z,49.96
2022-12-02T20:52:35.815Z,50.31
2022-12-02T20:55:06.307Z,50.08
2022-12-02T20:57:33.311Z,50.09
2022-12-02T21:00:00.403Z,49.69
2022-12-02T21:02:27.784Z,49.90
2022-12-02T21:04:56.145Z,49.67
2022-12-02T21:07:23.085Z,49.71
2022-12-02T21:09:50.975Z,49.42
2022-12-02T21:12:18.043Z,50.03
2022-12-02T21:14:45.066Z,49.80
2022-12-02T21:17:12.091Z,50.01
2022-12-02T21:19:39.099Z,49.79
2022-12-02T21:22:07.441Z,50.16
2022-12-02T21:24:34.515Z,50.14
2022-12-02T21:27:01.509Z,50.55
2022-12-02T21:29:28.500Z,50.42
2022-12-02T21:31:55.583Z,50.34
2022-12-02T21:34:22.683Z,49.88
2022-12-02T21:36:49.623Z,49.89
2022-12-02T21:39:17.998Z,50.13
2022-12-02T21:41:44.953Z,50.37
2022-12-02T21:44:11.950Z,50.35
2022-12-02T21:46:38.935Z,50.13
2022-12-02T21:49:06.035Z,50.24
2022-12-02T21:51:32.942Z,50.77
2022-12-02T21:53:59.878Z,50.28
2022-12-02T21:56:33.274Z,50.91
2022-12-02T21:59:03.265Z,50.65
2022-12-02T22:01:40.719Z,50.66
2022-12-02T22:04:11.879Z,51.00
2022-12-02T22:06:38.995Z,51.35
2022-12-02T22:09:06.916Z,51.62
2022-12-02T22:11:36.209Z,51.66
2022-12-02T22:14:04.091Z,51.53
2022-12-02T22:16:32.038Z,51.88
2022-12-02T22:18:59.656Z,51.82
2022-12-02T22:21:26.818Z,51.79
2022-12-02T22:23:53.804Z,52.10
2022-12-02T22:26:20.888Z,52.04
2022-12-02T22:28:49.223Z,52.15
2022-12-02T22:31:16.174Z,51.77
2022-12-02T22:33:43.240Z,52.51
2022-12-02T22:36:10.229Z,52.50
2022-12-02T22:38:37.182Z,52.33
2022-12-02T22:41:04.423Z,52.39
2022-12-02T22:43:31.398Z,52.43
2022-12-02T22:45:59.813Z,52.23
2022-12-02T22:48:26.872Z,52.39
2022-12-02T22:50:53.927Z,52.40
2022-12-02T22:53:20.988Z,51.91
2022-12-02T22:55:47.966Z,52.84
2022-12-02T22:58:15.059Z,52.76
2022-12-02T23:00:42.223Z,52.37
2022-12-02T23:03:10.504Z,52.56
2022-12-02T23:05:37.860Z,52.13
2022-12-02T23:08:05.307Z,52.73
2022-12-02T23:10:32.403Z,52.37
2022-12-02T23:12:59.474Z,52.19
2022-12-02T23:15:41.924Z,52.47
2022-12-02T23:18:10.456Z,52.48
2022-12-02T23:20:37.530Z,52.27
2022-12-02T23:23:04.608Z,52.12
2022-12-02T23:25:32.070Z,52.36
2022-12-02T23:27:59.079Z,52.24
2022-12-02T23:30:29.153Z,51.76
2022-12-02T23:32:57.366Z,52.18
2022-12-02T23:35:26.198Z,52.18
2022-12-02T23:37:53.162Z,51.81
2022-12-02T23:40:20.651Z,52.06
2022-12-02T23:42:47.582Z,52.18
2022-12-02T23:45:14.545Z,51.95
2022-12-02T23:47:41.538Z,52.25
2022-12-02T23:50:09.483Z,52.04
2022-12-02T23:52:37.794Z,52.30
2022-12-02T23:55:06.224Z,52.13
2022-12-02T23:57:33.269Z,52.14
